createdAt,value
2019-04-29T00:01:33.103Z,2.87
2019-04-29T00:04:01.752Z,3.25
2019-04-29T00:06:30.349Z,2.77
2019-04-29T00:08:59.031Z,3.08
2019-04-29T00:11:27.668Z,3.10
2019-04-29T00:13:56.321Z,3.87
2019-04-29T00:16:32.656Z,3.80
2019-04-29T00:19:18.880Z,3.40
2019-04-29T00:21:48.030Z,3.60
2019-04-29T00:24:16.621Z,3.17
2019-04-29T00:26:45.316Z,5.35
2019-04-29T00:29:13.923Z,3.35
2019-04-29T00:31:42.547Z,3.25
2019-04-29T00:34:11.161Z,3.20
2019-04-29T00:36:41.363Z,3.22
2019-04-29T00:39:11.617Z,3.67
2019-04-29T00:41:47.583Z,3.67
2019-04-29T00:44:17.553Z,3.37
2019-04-29T00:46:46.263Z,3.60
2019-04-29T00:49:14.851Z,4.25
2019-04-29T00:51:43.455Z,4.42
2019-04-29T00:54:19.587Z,3.92
2019-04-29T00:56:48.162Z,3.92
2019-04-29T00:59:16.835Z,4.40
2019-04-29T01:01:45.485Z,3.77
2019-04-29T01:04:14.072Z,4.00
2019-04-29T01:06:42.655Z,3.75
2019-04-29T01:09:13.220Z,4.12
2019-04-29T01:11:42.126Z,5.05
2019-04-29T01:14:10.971Z,4.60
2019-04-29T01:16:39.723Z,4.70
2019-04-29T01:19:08.282Z,5.05
2019-04-29T01:21:36.838Z,4.67
2019-04-29T01:24:05.529Z,4.50
2019-04-29T01:26:44.177Z,4.15
2019-04-29T01:29:14.410Z,4.83
2019-04-29T01:31:42.954Z,4.33
2019-04-29T01:34:13.174Z,5.03
2019-04-29T01:36:43.398Z,5.40
2019-04-29T01:39:12.714Z,4.70
2019-04-29T01:41:54.674Z,5.08
2019-04-29T01:44:27.615Z,5.12
2019-04-29T01:46:56.181Z,5.25
2019-04-29T01:49:24.773Z,5.28
2019-04-29T01:51:53.372Z,5.42
2019-04-29T01:54:21.945Z,5.47
2019-04-29T01:56:50.547Z,5.53
2019-04-29T01:59:19.120Z,5.42
2019-04-29T02:01:47.727Z,5.78
2019-04-29T02:04:16.456Z,5.70
2019-04-29T02:06:45.101Z,5.65
2019-04-29T02:09:24.244Z,6.60
2019-04-29T02:11:52.847Z,5.97
2019-04-29T02:14:21.422Z,6.55
2019-04-29T02:16:50.027Z,5.95
2019-04-29T02:19:18.573Z,5.83
2019-04-29T02:21:48.813Z,6.42
2019-04-29T02:24:19.080Z,6.62
2019-04-29T02:26:47.684Z,6.35
2019-04-29T02:29:16.232Z,6.87
2019-04-29T02:31:46.472Z,7.22
2019-04-29T02:34:15.048Z,7.30
2019-04-29T02:36:43.632Z,7.75
2019-04-29T02:39:20.932Z,7.60
2019-04-29T02:42:07.422Z,7.33
2019-04-29T02:44:36.063Z,7.10
2019-04-29T02:47:04.710Z,6.90
2019-04-29T02:49:33.279Z,7.22
2019-04-29T02:52:01.875Z,7.30
2019-04-29T02:54:30.498Z,8.93
2019-04-29T02:57:00.734Z,7.67
2019-04-29T02:59:42.818Z,8.38
2019-04-29T03:02:13.068Z,7.53
2019-04-29T03:04:52.443Z,8.25
2019-04-29T03:07:21.776Z,8.10
2019-04-29T03:09:50.578Z,7.97
2019-04-29T03:12:19.355Z,7.35
2019-04-29T03:14:47.978Z,8.63
2019-04-29T03:17:18.791Z,8.73
2019-04-29T03:20:04.804Z,10.90
2019-04-29T03:22:33.563Z,11.85
2019-04-29T03:25:02.191Z,13.08
2019-04-29T03:27:30.722Z,13.30
2019-04-29T03:29:59.318Z,13.65
2019-04-29T03:32:27.902Z,14.15
2019-04-29T03:34:56.496Z,13.55
2019-04-29T03:37:25.129Z,13.10
2019-04-29T03:39:53.670Z,13.50
2019-04-29T03:42:22.348Z,13.48
2019-04-29T03:44:51.007Z,13.65
2019-04-29T03:47:19.614Z,14.43
2019-04-29T03:49:48.152Z,13.70
2019-04-29T03:52:16.822Z,13.90
2019-04-29T03:54:45.417Z,14.55
2019-04-29T03:57:15.560Z,13.60
2019-04-29T03:59:44.133Z,13.70
2019-04-29T04:02:14.372Z,13.18
2019-04-29T04:04:59.457Z,14.20
2019-04-29T04:07:29.717Z,14.63
2019-04-29T04:09:58.273Z,14.87
2019-04-29T04:12:26.879Z,14.47
2019-04-29T04:14:55.507Z,15.65
2019-04-29T04:17:28.565Z,16.77
2019-04-29T04:19:57.136Z,15.20
2019-04-29T04:22:25.768Z,14.20
2019-04-29T04:24:54.335Z,16.00
2019-04-29T04:27:22.920Z,15.70
2019-04-29T04:29:51.524Z,16.00
2019-04-29T04:32:20.119Z,17.05
2019-04-29T04:34:48.684Z,17.40
2019-04-29T04:37:17.277Z,17.27
2019-04-29T04:39:46.048Z,16.87
2019-04-29T04:42:14.652Z,15.85
2019-04-29T04:44:49.172Z,16.60
2019-04-29T04:47:18.875Z,15.18
2019-04-29T04:49:47.686Z,15.85
2019-04-29T04:52:16.570Z,16.27
2019-04-29T04:54:46.871Z,15.78
2019-04-29T04:57:15.550Z,15.88
2019-04-29T04:59:44.134Z,16.35
2019-04-29T05:02:12.779Z,15.95
2019-04-29T05:04:41.431Z,16.90
2019-04-29T05:07:10.215Z,18.02
2019-04-29T05:09:38.899Z,16.85
2019-04-29T05:12:07.480Z,17.40
2019-04-29T05:14:36.090Z,15.60
2019-04-29T05:17:04.727Z,15.93
2019-04-29T05:19:33.334Z,16.37
2019-04-29T05:22:01.974Z,16.25
2019-04-29T05:24:30.574Z,15.88
2019-04-29T05:26:59.217Z,16.20
2019-04-29T05:29:28.765Z,14.30
2019-04-29T05:31:57.502Z,13.85
2019-04-29T05:34:27.720Z,13.55
2019-04-29T05:36:57.934Z,13.40
2019-04-29T05:39:30.952Z,12.82
2019-04-29T05:41:59.508Z,13.75
2019-04-29T05:44:32.184Z,13.32
2019-04-29T05:47:02.391Z,14.30
2019-04-29T05:49:32.654Z,13.80
2019-04-29T05:52:11.681Z,12.43
2019-04-29T05:54:41.243Z,12.35
2019-04-29T05:57:09.900Z,12.23
2019-04-29T05:59:38.498Z,12.82
2019-04-29T06:02:07.221Z,12.58
2019-04-29T06:04:35.830Z,11.80
2019-04-29T06:07:04.747Z,12.45
2019-04-29T06:09:33.368Z,11.60
2019-04-29T06:12:01.920Z,11.48
2019-04-29T06:14:30.595Z,11.43
2019-04-29T06:17:02.904Z,10.93
2019-04-29T06:19:29.689Z,10.38
2019-04-29T06:21:58.265Z,10.08
2019-04-29T06:24:26.860Z,9.95
2019-04-29T06:26:55.431Z,10.63
2019-04-29T06:29:24.106Z,10.72
2019-04-29T06:31:52.700Z,11.08
2019-04-29T06:34:21.530Z,9.78
2019-04-29T06:36:50.108Z,9.53
2019-04-29T06:39:18.720Z,9.65
2019-04-29T06:41:47.358Z,9.58
2019-04-29T06:44:16.939Z,9.83
2019-04-29T06:46:45.651Z,9.38
2019-04-29T06:49:14.265Z,9.15
2019-04-29T06:51:42.941Z,9.28
2019-04-29T06:54:11.636Z,9.25
2019-04-29T06:56:40.234Z,9.35
2019-04-29T06:59:12.073Z,10.13
2019-04-29T07:01:39.219Z,9.53
2019-04-29T07:04:07.823Z,8.98
2019-04-29T07:06:36.385Z,9.28
2019-04-29T07:09:06.672Z,9.63
2019-04-29T07:11:36.514Z,10.55
2019-04-29T07:14:05.428Z,9.35
2019-04-29T07:16:34.071Z,9.73
2019-04-29T07:19:02.637Z,10.50
2019-04-29T07:21:31.212Z,9.88
2019-04-29T07:23:59.752Z,9.75
2019-04-29T07:26:28.248Z,10.45
2019-04-29T07:28:56.784Z,9.55
2019-04-29T07:31:28.322Z,9.70
2019-04-29T07:33:57.914Z,9.50
2019-04-29T07:36:25.681Z,10.60
2019-04-29T07:38:56.671Z,9.58
2019-04-29T07:41:24.448Z,10.28
2019-04-29T07:43:52.996Z,9.38
2019-04-29T07:46:23.120Z,9.90
2019-04-29T07:49:01.437Z,9.60
2019-04-29T07:51:21.808Z,10.08
2019-04-29T07:53:50.285Z,9.20
2019-04-29T07:56:18.851Z,9.75
2019-04-29T07:58:48.646Z,9.40
2019-04-29T08:01:19.774Z,9.38
2019-04-29T08:03:47.491Z,10.18
2019-04-29T08:06:17.002Z,10.40
2019-04-29T08:08:54.697Z,10.48
2019-04-29T08:11:16.017Z,9.40
2019-04-29T08:13:45.006Z,10.25
2019-04-29T08:16:17.107Z,9.63
2019-04-29T08:18:43.784Z,9.90
2019-04-29T08:21:14.447Z,9.70
2019-04-29T08:23:42.558Z,9.80
2019-04-29T08:26:11.156Z,9.90
2019-04-29T08:28:39.701Z,10.95
2019-04-29T08:31:08.210Z,10.25
2019-04-29T08:33:36.768Z,9.60
2019-04-29T08:36:05.487Z,9.85
2019-04-29T08:38:34.032Z,10.05
2019-04-29T08:41:02.531Z,10.68
2019-04-29T08:43:47.486Z,9.83
2019-04-29T08:46:23.498Z,9.30
2019-04-29T08:48:52.053Z,9.23
2019-04-29T08:51:20.544Z,10.03
2019-04-29T08:53:49.015Z,9.83
2019-04-29T08:56:17.654Z,9.90
2019-04-29T08:58:49.303Z,9.98
2019-04-29T09:01:16.359Z,9.80
2019-04-29T09:03:44.908Z,9.65
2019-04-29T09:06:13.401Z,8.93
2019-04-29T09:08:54.106Z,9.03
2019-04-29T09:11:12.948Z,7.85
2019-04-29T09:13:42.623Z,7.85
2019-04-29T09:16:11.128Z,7.50
2019-04-29T09:18:39.622Z,8.35
2019-04-29T09:21:08.184Z,7.55
2019-04-29T09:23:38.121Z,7.28
2019-04-29T09:26:10.980Z,7.92
2019-04-29T09:31:07.236Z,9.18
2019-04-29T09:33:35.713Z,9.28
2019-04-29T09:36:04.302Z,9.83
2019-04-29T09:38:36.882Z,9.75
2019-04-29T09:41:10.588Z,9.13
2019-04-29T09:43:40.770Z,9.48
2019-04-29T09:46:13.704Z,10.03
2019-04-29T09:51:17.711Z,8.95
2019-04-29T09:53:41.992Z,9.00
2019-04-29T09:56:10.611Z,9.53
2019-04-29T09:58:39.177Z,9.68
2019-04-29T10:01:13.863Z,9.85
2019-04-29T10:03:45.196Z,9.65
2019-04-29T10:06:15.382Z,9.20
2019-04-29T10:08:43.953Z,9.05
2019-04-29T10:11:12.684Z,10.10
2019-04-29T10:13:41.282Z,9.40
2019-04-29T10:16:17.378Z,9.65
2019-04-29T10:18:47.606Z,9.33
2019-04-29T10:21:21.615Z,9.60
2019-04-29T10:23:47.576Z,9.38
2019-04-29T10:26:16.129Z,8.85
2019-04-29T10:28:46.342Z,9.00
2019-04-29T10:31:15.645Z,9.43
2019-04-29T10:33:44.232Z,9.10
2019-04-29T10:36:16.049Z,8.83
2019-04-29T10:38:44.892Z,8.20
2019-04-29T10:41:36.043Z,8.40
2019-04-29T10:44:13.710Z,8.23
2019-04-29T10:46:59.957Z,7.72
2019-04-29T10:49:30.165Z,7.70
2019-04-29T10:52:02.824Z,7.70
2019-04-29T10:54:29.805Z,7.75
2019-04-29T10:56:58.352Z,6.60
2019-04-29T10:59:35.578Z,6.67
2019-04-29T11:02:19.555Z,6.40
2019-04-29T11:04:49.773Z,6.67
2019-04-29T11:07:35.189Z,5.85
2019-04-29T11:10:08.120Z,5.17
2019-04-29T11:12:36.886Z,5.45
2019-04-29T11:15:09.835Z,4.95
2019-04-29T11:17:39.555Z,5.42
2019-04-29T11:20:11.270Z,3.80
2019-04-29T11:22:40.332Z,4.70
2019-04-29T11:25:13.490Z,4.92
2019-04-29T11:27:49.356Z,4.97
2019-04-29T11:30:19.712Z,4.58
2019-04-29T11:33:06.232Z,5.83
2019-04-29T11:35:42.316Z,5.10
2019-04-29T11:38:11.862Z,4.20
2019-04-29T11:40:43.591Z,3.72
2019-04-29T11:43:15.604Z,3.77
2019-04-29T11:45:42.745Z,3.83
2019-04-29T11:48:11.661Z,3.47
2019-04-29T11:50:45.218Z,3.70
2019-04-29T11:53:15.674Z,7.65
2019-04-29T11:55:46.401Z,4.53
2019-04-29T11:58:21.981Z,2.90
2019-04-29T12:01:03.918Z,2.75
2019-04-29T12:03:51.465Z,2.52
2019-04-29T12:06:20.783Z,2.42
2019-04-29T12:08:53.013Z,3.33
2019-04-29T12:11:19.208Z,3.22
2019-04-29T12:14:05.616Z,2.50
2019-04-29T12:16:35.805Z,2.67
2019-04-29T12:19:09.111Z,2.70
2019-04-29T12:21:41.963Z,2.35
2019-04-29T12:24:10.698Z,2.30
2019-04-29T12:26:43.199Z,2.45
2019-04-29T12:29:13.559Z,2.22
2019-04-29T12:31:56.650Z,2.52
2019-04-29T12:34:41.685Z,2.37
2019-04-29T12:37:29.941Z,1.90
2019-04-29T12:40:09.843Z,2.35
2019-04-29T12:42:40.238Z,2.20
2019-04-29T12:45:19.625Z,1.95
2019-04-29T12:47:47.184Z,2.55
2019-04-29T12:50:17.559Z,2.70
2019-04-29T12:52:46.060Z,2.25
2019-04-29T12:55:20.258Z,2.47
2019-04-29T12:57:46.479Z,2.15
2019-04-29T13:00:16.861Z,2.85
2019-04-29T13:02:49.751Z,2.77
2019-04-29T13:05:19.959Z,2.83
2019-04-29T13:07:50.142Z,2.60
2019-04-29T13:10:20.346Z,2.80
2019-04-29T13:12:49.021Z,2.67
2019-04-29T13:15:28.353Z,3.00
2019-04-29T13:18:03.594Z,2.80
2019-04-29T13:20:31.803Z,3.47
2019-04-29T13:23:16.713Z,2.87
2019-04-29T13:25:30.481Z,3.30
2019-04-29T13:28:04.011Z,2.95
2019-04-29T13:30:29.244Z,2.90
2019-04-29T13:33:01.145Z,3.62
2019-04-29T13:35:27.939Z,3.20
2019-04-29T13:37:56.575Z,3.60
2019-04-29T13:40:25.276Z,3.55
2019-04-29T13:42:53.752Z,3.60
2019-04-29T13:45:29.786Z,3.47
2019-04-29T13:48:17.779Z,3.80
2019-04-29T13:50:47.965Z,3.95
2019-04-29T13:53:17.221Z,3.70
2019-04-29T13:55:49.350Z,4.33
2019-04-29T13:58:16.996Z,4.80
2019-04-29T14:00:55.754Z,4.17
2019-04-29T14:03:30.824Z,4.50
2019-04-29T14:06:04.211Z,4.85
2019-04-29T14:08:30.565Z,4.00
2019-04-29T14:10:59.187Z,4.17
2019-04-29T14:13:27.720Z,4.47
2019-04-29T14:15:56.525Z,3.77
2019-04-29T14:18:25.152Z,4.22
2019-04-29T14:20:53.628Z,4.58
2019-04-29T14:23:22.190Z,4.65
2019-04-29T14:25:50.669Z,3.33
2019-04-29T14:28:19.232Z,3.80
2019-04-29T14:30:49.135Z,3.98
2019-04-29T14:33:24.412Z,4.40
2019-04-29T14:35:51.335Z,4.78
2019-04-29T14:38:19.908Z,6.03
2019-04-29T14:40:48.385Z,5.22
2019-04-29T14:43:36.620Z,5.87
2019-04-29T14:46:22.577Z,6.87
2019-04-29T14:48:59.465Z,6.42
2019-04-29T14:51:36.368Z,5.87
2019-04-29T14:54:01.312Z,7.30
2019-04-29T14:56:29.102Z,7.35
2019-04-29T14:59:06.537Z,5.47
2019-04-29T15:01:29.679Z,4.67
2019-04-29T15:03:59.894Z,4.17
2019-04-29T15:06:29.079Z,3.50
2019-04-29T15:08:57.971Z,4.78
2019-04-29T15:11:32.453Z,3.72
2019-04-29T15:14:05.784Z,4.03
2019-04-29T15:16:36.104Z,4.28
2019-04-29T15:19:22.245Z,3.10
2019-04-29T15:21:52.487Z,4.37
2019-04-29T15:24:21.032Z,3.98
2019-04-29T15:26:49.575Z,3.37
2019-04-29T15:29:18.137Z,3.75
2019-04-29T15:31:47.442Z,4.35
2019-04-29T15:34:16.891Z,2.85
2019-04-29T15:36:45.392Z,4.37
2019-04-29T15:39:14.253Z,4.25
2019-04-29T15:41:43.003Z,3.02
2019-04-29T15:44:18.835Z,3.75
2019-04-29T15:46:48.717Z,3.95
2019-04-29T15:49:12.089Z,3.30
2019-04-29T15:51:44.271Z,3.40
2019-04-29T15:54:14.302Z,4.00
2019-04-29T15:56:41.121Z,6.03
2019-04-29T15:59:10.324Z,5.75
2019-04-29T16:01:41.648Z,8.43
2019-04-29T16:04:10.845Z,5.17
2019-04-29T16:06:46.744Z,4.67
2019-04-29T16:09:50.782Z,4.67
2019-04-29T16:12:13.915Z,4.47
2019-04-29T16:14:35.285Z,4.80
2019-04-29T16:17:03.840Z,4.20
2019-04-29T16:19:32.337Z,4.78
2019-04-29T16:22:00.813Z,4.33
2019-04-29T16:27:01.255Z,5.03
2019-04-29T16:29:29.747Z,4.08
2019-04-29T16:32:02.354Z,4.15
2019-04-29T16:34:28.489Z,5.70
2019-04-29T16:36:57.042Z,5.62
2019-04-29T16:39:25.614Z,5.03
2019-04-29T16:41:58.126Z,5.30
2019-04-29T16:44:35.464Z,5.53
2019-04-29T16:46:56.376Z,5.55
2019-04-29T16:49:24.945Z,5.35
2019-04-29T16:51:55.639Z,5.37
2019-04-29T16:54:28.139Z,5.97
2019-04-29T16:56:53.887Z,6.10
2019-04-29T16:59:22.437Z,6.47
2019-04-29T17:01:51.053Z,5.00
2019-04-29T17:04:19.616Z,6.92
2019-04-29T17:07:11.265Z,7.00
2019-04-29T17:09:31.855Z,7.42
2019-04-29T17:12:01.568Z,7.60
2019-04-29T17:14:30.226Z,7.65
2019-04-29T17:16:58.740Z,6.50
2019-04-29T17:19:27.319Z,7.37
2019-04-29T17:22:23.771Z,8.23
2019-04-29T17:24:26.062Z,7.78
2019-04-29T17:26:56.450Z,6.28
2019-04-29T17:29:39.188Z,6.22
2019-04-29T17:32:10.716Z,6.77
2019-04-29T17:34:58.067Z,7.25
2019-04-29T17:35:17.400Z,5.00
2019-04-29T17:37:10.621Z,6.47
2019-04-29T17:39:39.122Z,7.55
2019-04-29T17:42:07.732Z,7.50
2019-04-29T17:44:40.661Z,6.70
2019-04-29T17:47:27.047Z,7.87
2019-04-29T17:50:02.143Z,8.83
2019-04-29T17:52:30.674Z,8.40
2019-04-29T17:55:05.198Z,8.03
2019-04-29T17:57:37.892Z,6.67
2019-04-29T18:00:09.971Z,9.80
2019-04-29T18:02:52.565Z,8.95
2019-04-29T18:05:34.509Z,7.20
2019-04-29T18:08:17.293Z,8.38
2019-04-29T18:10:59.809Z,8.45
2019-04-29T18:13:29.768Z,8.10
2019-04-29T18:16:03.441Z,9.10
2019-04-29T18:18:30.182Z,8.55
2019-04-29T18:21:16.185Z,9.48
2019-04-29T18:24:02.571Z,8.23
2019-04-29T18:26:48.131Z,9.23
2019-04-29T18:29:16.163Z,8.78
2019-04-29T18:31:46.515Z,9.40
2019-04-29T18:34:15.378Z,8.70
2019-04-29T18:36:45.671Z,8.53
2019-04-29T18:39:15.982Z,10.58
2019-04-29T18:41:44.874Z,10.78
2019-04-29T18:44:19.308Z,11.08
2019-04-29T18:46:53.257Z,11.78
2019-04-29T18:49:15.846Z,11.38
2019-04-29T18:51:45.553Z,10.10
2019-04-29T18:54:14.124Z,10.80
2019-04-29T18:56:42.701Z,11.33
2019-04-29T18:59:11.255Z,13.95
2019-04-29T19:01:39.810Z,10.70
2019-04-29T19:04:16.355Z,12.78
2019-04-29T19:06:40.627Z,12.15
2019-04-29T19:09:18.017Z,11.22
2019-04-29T19:11:39.601Z,12.73
2019-04-29T19:14:08.150Z,14.35
2019-04-29T19:16:39.431Z,14.10
2019-04-29T19:19:07.008Z,13.65
2019-04-29T19:21:35.661Z,14.30
2019-04-29T19:24:04.838Z,14.68
2019-04-29T19:26:35.022Z,14.00
2019-04-29T19:29:06.262Z,15.90
2019-04-29T19:31:36.866Z,17.10
2019-04-29T19:34:05.520Z,18.17
2019-04-29T19:36:35.282Z,16.77
2019-04-29T19:39:06.198Z,17.23
2019-04-29T19:41:35.577Z,17.80
2019-04-29T19:44:05.808Z,16.57
2019-04-29T19:46:38.477Z,18.07
2019-04-29T19:49:09.873Z,17.17
2019-04-29T19:51:39.388Z,16.03
2019-04-29T19:54:06.856Z,16.93
2019-04-29T19:56:36.266Z,14.63
2019-04-29T19:59:12.327Z,15.98
2019-04-29T20:01:37.691Z,14.60
2019-04-29T20:04:25.003Z,19.30
2019-04-29T20:06:58.495Z,18.45
2019-04-29T20:09:27.246Z,14.95
2019-04-29T20:11:55.828Z,18.77
2019-04-29T20:14:30.190Z,19.90
2019-04-29T20:17:04.303Z,17.73
2019-04-29T20:19:33.984Z,16.37
2019-04-29T20:22:07.589Z,15.65
2019-04-29T20:24:35.730Z,14.85
2019-04-29T20:27:04.630Z,15.72
2019-04-29T20:29:34.377Z,17.00
2019-04-29T20:32:03.428Z,20.45
2019-04-29T20:34:32.168Z,18.55
2019-04-29T20:37:00.931Z,19.92
2019-04-29T20:39:29.491Z,19.05
2019-04-29T20:42:01.000Z,16.00
2019-04-29T20:44:28.443Z,16.60
2019-04-29T20:47:14.201Z,18.52
2019-04-29T20:49:30.874Z,20.48
2019-04-29T20:51:59.373Z,19.65
2019-04-29T20:54:29.655Z,20.17
2019-04-29T20:57:04.791Z,17.92
2019-04-29T20:59:28.531Z,23.00
2019-04-29T21:02:11.095Z,22.25
2019-04-29T21:04:31.881Z,23.47
2019-04-29T21:07:02.474Z,21.85
2019-04-29T21:09:30.335Z,21.80
2019-04-29T21:12:20.405Z,25.25
2019-04-29T21:14:48.068Z,25.02
2019-04-29T21:17:28.810Z,22.10
2019-04-29T21:19:46.850Z,23.05
2019-04-29T21:22:22.266Z,25.12
2019-04-29T21:24:49.492Z,27.70
2019-04-29T21:27:22.208Z,26.85
2019-04-29T21:29:49.748Z,28.83
2019-04-29T21:32:16.388Z,25.00
2019-04-29T21:34:46.581Z,28.87
2019-04-29T21:37:22.671Z,29.52
2019-04-29T21:39:55.818Z,31.45
2019-04-29T21:42:35.216Z,32.73
2019-04-29T21:45:03.523Z,33.98
2019-04-29T21:47:41.597Z,35.88
2019-04-29T21:49:59.344Z,33.60
2019-04-29T21:52:27.888Z,37.05
2019-04-29T21:54:56.982Z,36.53
2019-04-29T21:57:25.735Z,38.42
2019-04-29T21:59:55.577Z,36.90
2019-04-29T22:02:26.069Z,39.58
2019-04-29T22:04:55.167Z,39.30
2019-04-29T22:07:25.638Z,39.88
2019-04-29T22:09:55.647Z,40.85
2019-04-29T22:12:24.409Z,39.98
2019-04-29T22:14:54.204Z,40.17
2019-04-29T22:17:26.377Z,40.60
2019-04-29T22:19:57.388Z,42.40
2019-04-29T22:22:23.644Z,40.10
2019-04-29T22:24:52.208Z,39.55
2019-04-29T22:27:20.696Z,40.52
2019-04-29T22:29:49.253Z,42.93
2019-04-29T22:32:19.306Z,41.42
2019-04-29T22:34:49.539Z,39.75
2019-04-29T22:37:20.686Z,41.70
2019-04-29T22:39:48.484Z,42.23
2019-04-29T22:42:27.738Z,38.63
2019-04-29T22:44:57.315Z,50.55
2019-04-29T22:47:24.966Z,44.60
2019-04-29T22:49:53.545Z,47.90
2019-04-29T22:52:25.485Z,52.45
2019-04-29T22:54:52.889Z,61.90
2019-04-29T22:57:22.957Z,47.90
2019-04-29T22:59:54.043Z,65.03
2019-04-29T23:02:25.101Z,58.20
2019-04-29T23:04:53.870Z,52.35
2019-04-29T23:07:23.481Z,51.80
2019-04-29T23:09:51.992Z,53.02
2019-04-29T23:12:20.599Z,53.65
2019-04-29T23:14:49.112Z,54.33
2019-04-29T23:17:17.583Z,58.90
2019-04-29T23:19:50.669Z,60.80
2019-04-29T23:22:26.294Z,46.00
2019-04-29T23:24:56.501Z,49.33
2019-04-29T23:27:25.870Z,53.85
2019-04-29T23:29:54.548Z,44.80
2019-04-29T23:32:23.096Z,57.40
2019-04-29T23:34:51.661Z,55.40
2019-04-29T23:37:23.771Z,50.03
2019-04-29T23:39:50.356Z,50.63
2019-04-29T23:42:18.913Z,43.58
2019-04-29T23:44:47.468Z,50.70
2019-04-29T23:47:17.768Z,62.25
2019-04-29T23:49:46.787Z,45.28
2019-04-29T23:52:16.068Z,52.08
2019-04-29T23:54:48.540Z,45.40
2019-04-29T23:57:23.727Z,45.85
